createdAt,value
2023-03-27T00:01:30.936Z,9.78
2023-03-27T00:03:33.764Z,9.76
2023-03-27T00:05:36.060Z,9.77
2023-03-27T00:07:41.788Z,9.78
2023-03-27T00:09:44.541Z,9.77
2023-03-27T00:11:46.988Z,9.78
2023-03-27T00:13:51.275Z,9.67
2023-03-27T00:15:55.242Z,9.69
2023-03-27T00:17:58.998Z,9.70
2023-03-27T00:20:01.339Z,9.58
2023-03-27T00:22:04.003Z,9.69
2023-03-27T00:24:07.145Z,9.70
2023-03-27T00:26:09.330Z,9.71
2023-03-27T00:28:11.598Z,9.74
2023-03-27T00:30:14.354Z,9.62
2023-03-27T00:32:16.772Z,9.65
2023-03-27T00:34:18.939Z,9.65
2023-03-27T00:36:22.149Z,9.55
2023-03-27T00:38:24.655Z,9.61
2023-03-27T00:40:27.405Z,9.58
2023-03-27T00:42:30.717Z,9.58
2023-03-27T00:44:34.684Z,9.57
2023-03-27T00:46:41.867Z,9.62
2023-03-27T00:48:48.561Z,9.52
2023-03-27T00:50:51.881Z,9.59
2023-03-27T00:52:59.916Z,9.57
2023-03-27T00:55:07.894Z,9.58
2023-03-27T00:57:14.632Z,9.49
2023-03-27T00:59:20.222Z,9.43
2023-03-27T01:01:26.490Z,9.51
2023-03-27T01:03:32.630Z,9.60
2023-03-27T01:05:36.500Z,9.61
2023-03-27T01:07:40.854Z,9.59
2023-03-27T01:10:05.508Z,9.54
2023-03-27T01:12:13.965Z,9.54
2023-03-27T01:14:24.541Z,9.55
2023-03-27T01:16:34.005Z,9.55
2023-03-27T01:18:38.974Z,9.53
2023-03-27T01:20:45.822Z,9.52
2023-03-27T01:22:54.429Z,9.51
2023-03-27T01:24:57.487Z,9.46
2023-03-27T01:27:04.093Z,9.55
2023-03-27T01:29:08.044Z,9.52
2023-03-27T01:31:16.823Z,9.43
2023-03-27T01:33:26.768Z,9.50
2023-03-27T01:35:32.717Z,9.52
2023-03-27T01:37:50.623Z,9.44
2023-03-27T01:39:57.484Z,9.49
2023-03-27T01:42:06.532Z,9.53
2023-03-27T01:44:17.405Z,9.51
2023-03-27T01:46:23.491Z,9.54
2023-03-27T01:48:33.003Z,9.44
2023-03-27T01:50:39.613Z,9.52
2023-03-27T01:52:47.014Z,9.51
2023-03-27T01:54:58.338Z,9.55
2023-03-27T01:57:10.509Z,9.51
2023-03-27T01:59:17.563Z,9.51
2023-03-27T02:01:24.457Z,9.52
2023-03-27T02:03:33.970Z,9.50
2023-03-27T02:05:39.015Z,9.51
2023-03-27T02:07:49.057Z,9.48
2023-03-27T02:09:56.858Z,9.45
2023-03-27T02:12:03.410Z,9.42
2023-03-27T02:14:11.858Z,9.46
2023-03-27T02:16:19.053Z,9.48
2023-03-27T02:18:29.653Z,9.39
2023-03-27T02:20:34.504Z,9.29
2023-03-27T02:22:39.211Z,9.32
2023-03-27T02:24:43.638Z,9.35
2023-03-27T02:26:50.596Z,9.33
2023-03-27T02:28:54.658Z,9.37
2023-03-27T02:31:06.309Z,9.27
2023-03-27T02:33:30.370Z,9.34
2023-03-27T02:35:38.800Z,9.27
2023-03-27T02:37:47.418Z,9.33
2023-03-27T02:39:50.448Z,9.33
2023-03-27T02:42:02.110Z,9.23
2023-03-27T02:44:12.469Z,9.28
2023-03-27T02:46:18.147Z,9.29
2023-03-27T02:48:26.613Z,9.29
2023-03-27T02:50:36.536Z,9.30
2023-03-27T02:52:44.506Z,9.32
2023-03-27T02:54:54.055Z,9.25
2023-03-27T02:57:01.719Z,9.31
2023-03-27T02:59:10.500Z,9.32
2023-03-27T03:01:16.922Z,9.33
2023-03-27T03:03:28.295Z,9.32
2023-03-27T03:05:30.477Z,9.28
2023-03-27T03:07:34.867Z,9.20
2023-03-27T03:09:40.366Z,9.20
2023-03-27T03:11:48.681Z,9.30
2023-03-27T03:13:50.785Z,9.30
2023-03-27T03:15:52.997Z,9.21
2023-03-27T03:17:55.336Z,9.22
2023-03-27T03:19:57.527Z,9.18
2023-03-27T03:22:01.344Z,9.11
2023-03-27T03:24:03.803Z,9.07
2023-03-27T03:26:07.391Z,9.14
2023-03-27T03:28:10.804Z,9.14
2023-03-27T03:30:17.290Z,9.10
2023-03-27T03:32:19.850Z,9.09
2023-03-27T03:34:22.756Z,9.08
2023-03-27T03:36:24.943Z,9.09
2023-03-27T03:38:29.849Z,9.10
2023-03-27T03:40:40.039Z,8.99
2023-03-27T03:42:46.949Z,9.00
2023-03-27T03:44:49.333Z,8.99
2023-03-27T03:46:51.452Z,9.05
2023-03-27T03:48:53.821Z,9.06
2023-03-27T03:50:56.310Z,9.06
2023-03-27T03:52:58.779Z,8.93
2023-03-27T03:55:00.965Z,8.94
2023-03-27T03:57:03.504Z,8.94
2023-03-27T03:59:05.806Z,8.90
2023-03-27T04:01:09.287Z,8.91
2023-03-27T04:03:11.530Z,8.82
2023-03-27T04:05:13.748Z,8.83
2023-03-27T04:07:17.957Z,8.85
2023-03-27T04:09:20.104Z,8.82
2023-03-27T04:11:22.450Z,8.79
2023-03-27T04:13:24.803Z,8.77
2023-03-27T04:15:27.731Z,8.73
2023-03-27T04:17:30.215Z,8.72
2023-03-27T04:19:32.524Z,8.67
2023-03-27T04:21:34.698Z,8.70
2023-03-27T04:23:36.906Z,8.67
2023-03-27T04:25:40.458Z,8.72
2023-03-27T04:27:43.734Z,8.73
2023-03-27T04:29:47.742Z,8.67
2023-03-27T04:31:49.869Z,8.65
2023-03-27T04:33:52.626Z,8.69
2023-03-27T04:36:05.521Z,8.74
2023-03-27T04:38:09.783Z,8.64
2023-03-27T04:40:14.455Z,8.72
2023-03-27T04:42:16.634Z,8.74
2023-03-27T04:44:19.145Z,8.73
2023-03-27T04:46:21.400Z,8.72
2023-03-27T04:48:23.562Z,8.71
2023-03-27T04:50:25.884Z,8.69
2023-03-27T04:52:29.902Z,8.70
2023-03-27T04:54:32.039Z,8.75
2023-03-27T04:56:35.321Z,8.69
2023-03-27T04:58:37.964Z,8.73
2023-03-27T05:00:40.802Z,8.71
2023-03-27T05:02:43.269Z,8.74
2023-03-27T05:04:45.971Z,8.73
2023-03-27T05:06:48.369Z,8.71
2023-03-27T05:08:51.485Z,8.69
2023-03-27T05:10:53.761Z,8.69
2023-03-27T05:12:58.319Z,8.69
2023-03-27T05:15:04.220Z,8.71
2023-03-27T05:17:07.096Z,8.70
2023-03-27T05:19:09.314Z,8.64
2023-03-27T05:21:12.578Z,8.68
2023-03-27T05:23:14.755Z,8.65
2023-03-27T05:25:17.391Z,8.68
2023-03-27T05:27:19.698Z,8.65
2023-03-27T05:29:21.980Z,8.59
2023-03-27T05:31:25.222Z,8.65
2023-03-27T05:33:27.372Z,8.58
2023-03-27T05:35:29.987Z,8.55
2023-03-27T05:37:32.123Z,8.43
2023-03-27T05:39:36.958Z,8.46
2023-03-27T05:41:39.423Z,8.50
2023-03-27T05:43:41.985Z,8.33
2023-03-27T05:45:44.850Z,8.32
2023-03-27T05:47:52.195Z,8.40
2023-03-27T05:49:54.448Z,8.37
2023-03-27T05:51:57.175Z,8.33
2023-03-27T05:53:59.407Z,8.34
2023-03-27T05:56:03.265Z,8.27
2023-03-27T05:58:10.174Z,8.32
2023-03-27T06:00:16.120Z,8.36
2023-03-27T06:02:21.085Z,8.27
2023-03-27T06:04:23.737Z,8.29
2023-03-27T06:06:27.082Z,8.28
2023-03-27T06:08:30.032Z,8.16
2023-03-27T06:10:34.488Z,8.18
2023-03-27T06:12:38.125Z,8.08
2023-03-27T06:14:40.210Z,8.15
2023-03-27T06:16:43.083Z,8.17
2023-03-27T06:18:45.340Z,8.15
2023-03-27T06:20:47.433Z,8.19
2023-03-27T06:22:52.075Z,8.16
2023-03-27T06:24:54.336Z,8.23
2023-03-27T06:26:56.444Z,8.24
2023-03-27T06:28:58.805Z,8.23
2023-03-27T06:31:01.017Z,8.20
2023-03-27T06:33:03.769Z,8.20
2023-03-27T06:35:07.937Z,8.16
2023-03-27T06:37:10.610Z,8.14
2023-03-27T06:39:12.902Z,8.14
2023-03-27T06:41:15.115Z,8.12
2023-03-27T06:43:19.283Z,8.00
2023-03-27T06:45:23.376Z,8.11
2023-03-27T06:47:25.634Z,8.14
2023-03-27T06:49:27.928Z,8.12
2023-03-27T06:51:30.174Z,8.14
2023-03-27T06:53:35.954Z,8.05
2023-03-27T06:55:40.968Z,8.07
2023-03-27T06:57:45.367Z,8.13
2023-03-27T06:59:47.889Z,8.00
2023-03-27T07:01:52.708Z,8.05
2023-03-27T07:03:54.968Z,8.01
2023-03-27T07:05:57.608Z,8.02
2023-03-27T07:08:05.440Z,8.02
2023-03-27T07:10:17.908Z,8.13
2023-03-27T07:12:20.058Z,8.15
2023-03-27T07:14:22.609Z,8.13
2023-03-27T07:16:25.279Z,8.16
2023-03-27T07:18:27.669Z,8.19
2023-03-27T07:20:31.709Z,8.22
2023-03-27T07:22:34.138Z,8.27
2023-03-27T07:24:36.394Z,8.30
2023-03-27T07:26:38.672Z,8.25
2023-03-27T07:28:40.927Z,8.28
2023-03-27T07:30:43.573Z,8.31
2023-03-27T07:32:47.334Z,8.27
2023-03-27T07:34:49.668Z,8.29
2023-03-27T07:36:51.830Z,8.32
2023-03-27T07:38:53.962Z,8.34
2023-03-27T07:40:58.150Z,8.34
2023-03-27T07:43:00.532Z,8.37
2023-03-27T07:45:04.543Z,8.33
2023-03-27T07:47:07.266Z,8.39
2023-03-27T07:49:09.817Z,8.42
2023-03-27T07:51:14.091Z,8.46
2023-03-27T07:53:34.184Z,8.44
2023-03-27T07:55:38.178Z,8.38
2023-03-27T07:59:49.874Z,8.41
2023-03-27T08:01:52.068Z,8.43
2023-03-27T08:03:54.608Z,8.38
2023-03-27T08:05:59.200Z,8.46
2023-03-27T08:08:01.696Z,8.52
2023-03-27T08:10:06.655Z,8.53
2023-03-27T08:12:08.888Z,8.48
2023-03-27T08:14:11.118Z,8.53
2023-03-27T08:16:17.818Z,8.49
2023-03-27T08:18:20.182Z,8.56
2023-03-27T08:20:23.903Z,8.55
2023-03-27T08:22:26.389Z,8.62
2023-03-27T08:24:29.031Z,8.64
2023-03-27T08:26:32.745Z,8.63
2023-03-27T08:28:37.369Z,8.64
2023-03-27T08:30:39.638Z,8.66
2023-03-27T08:32:44.269Z,8.77
2023-03-27T08:34:46.933Z,8.76
2023-03-27T08:36:49.135Z,8.82
2023-03-27T08:38:51.795Z,8.84
2023-03-27T08:40:59.420Z,8.92
2023-03-27T08:43:07.577Z,8.94
2023-03-27T08:45:21.189Z,8.99
2023-03-27T08:47:29.911Z,9.01
2023-03-27T08:49:36.863Z,9.05
2023-03-27T08:51:45.490Z,9.10
2023-03-27T08:53:54.155Z,9.13
2023-03-27T08:55:56.811Z,9.16
2023-03-27T08:57:59.454Z,9.14
2023-03-27T09:00:02.844Z,9.19
2023-03-27T09:02:12.026Z,9.23
2023-03-27T09:04:21.537Z,9.32
2023-03-27T09:06:37.189Z,9.28
2023-03-27T09:08:43.078Z,9.06
2023-03-27T09:10:49.903Z,9.22
2023-03-27T09:12:58.777Z,9.33
2023-03-27T09:15:23.394Z,9.40
2023-03-27T09:17:33.079Z,9.53
2023-03-27T09:19:45.974Z,9.54
2023-03-27T09:21:58.166Z,9.67
2023-03-27T09:24:02.594Z,9.62
2023-03-27T09:26:20.178Z,9.73
2023-03-27T09:28:26.413Z,9.84
2023-03-27T09:30:32.036Z,9.90
2023-03-27T09:32:35.218Z,9.97
2023-03-27T09:34:38.016Z,9.99
2023-03-27T09:36:42.082Z,10.05
2023-03-27T09:38:50.959Z,10.16
2023-03-27T09:40:57.541Z,9.99
2023-03-27T09:43:09.882Z,9.79
2023-03-27T09:45:13.960Z,10.01
2023-03-27T09:47:33.899Z,10.16
2023-03-27T09:49:39.127Z,10.21
2023-03-27T09:51:47.018Z,10.40
2023-03-27T09:53:56.268Z,10.46
2023-03-27T09:56:04.149Z,10.51
2023-03-27T09:58:23.989Z,10.63
2023-03-27T10:00:31.499Z,10.75
2023-03-27T10:02:33.932Z,10.82
2023-03-27T10:04:37.025Z,10.89
2023-03-27T10:06:44.230Z,10.92
2023-03-27T10:08:50.739Z,11.02
2023-03-27T10:10:58.225Z,11.09
2023-03-27T10:13:01.573Z,11.15
2023-03-27T10:15:07.302Z,11.27
2023-03-27T10:17:15.946Z,11.22
2023-03-27T10:19:24.226Z,11.23
2023-03-27T10:21:32.055Z,11.32
2023-03-27T10:23:40.942Z,11.33
2023-03-27T10:25:51.678Z,11.28
2023-03-27T10:27:55.193Z,11.38
2023-03-27T10:29:58.176Z,11.39
2023-03-27T10:32:02.399Z,11.37
2023-03-27T10:34:07.674Z,11.35
2023-03-27T10:36:14.811Z,11.31
2023-03-27T10:38:18.888Z,11.31
2023-03-27T10:40:26.443Z,11.31
2023-03-27T10:42:32.966Z,11.32
2023-03-27T10:44:37.994Z,11.37
2023-03-27T10:46:41.375Z,11.33
2023-03-27T10:48:49.904Z,11.54
2023-03-27T10:50:57.811Z,11.58
2023-03-27T10:53:07.650Z,11.71
2023-03-27T10:55:13.351Z,11.68
2023-03-27T10:57:21.522Z,11.85
2023-03-27T10:59:41.135Z,11.87
2023-03-27T11:01:52.731Z,12.19
2023-03-27T11:04:03.681Z,12.26
2023-03-27T11:06:13.169Z,12.54
2023-03-27T11:08:21.925Z,12.67
2023-03-27T11:10:31.856Z,12.91
2023-03-27T11:12:38.253Z,13.15
2023-03-27T11:14:46.601Z,13.19
2023-03-27T11:16:56.821Z,13.43
2023-03-27T11:19:03.810Z,13.41
2023-03-27T11:21:13.039Z,13.35
2023-03-27T11:23:19.054Z,13.55
2023-03-27T11:25:25.802Z,13.36
2023-03-27T11:27:34.689Z,13.48
2023-03-27T11:29:44.537Z,13.81
2023-03-27T11:31:51.462Z,13.82
2023-03-27T11:34:00.916Z,13.89
2023-03-27T11:36:10.309Z,13.94
2023-03-27T11:38:23.277Z,13.92
2023-03-27T11:40:31.079Z,13.79
2023-03-27T11:42:39.599Z,13.77
2023-03-27T11:44:42.989Z,13.83
2023-03-27T11:46:52.395Z,13.80
2023-03-27T11:49:01.206Z,13.79
2023-03-27T11:51:09.119Z,13.92
2023-03-27T11:53:16.956Z,14.04
2023-03-27T11:55:25.111Z,14.11
2023-03-27T11:57:27.761Z,14.36
2023-03-27T11:59:33.466Z,14.46
2023-03-27T12:01:44.903Z,14.09
2023-03-27T12:04:09.482Z,14.60
2023-03-27T12:06:22.916Z,14.82
2023-03-27T12:08:29.529Z,15.00
2023-03-27T12:10:35.307Z,15.22
2023-03-27T12:12:41.790Z,15.01
2023-03-27T12:14:48.556Z,15.05
2023-03-27T12:16:55.102Z,15.23
2023-03-27T12:19:08.128Z,15.11
2023-03-27T12:21:24.180Z,15.10
2023-03-27T12:23:32.527Z,15.37
2023-03-27T12:25:48.717Z,15.35
2023-03-27T12:27:54.329Z,15.48
2023-03-27T12:30:02.602Z,15.62
2023-03-27T12:32:25.866Z,15.74
2023-03-27T12:34:57.287Z,15.88
2023-03-27T12:37:01.964Z,16.06
2023-03-27T12:39:18.741Z,16.22
2023-03-27T12:41:24.480Z,16.27
2023-03-27T12:43:29.638Z,16.17
2023-03-27T12:45:33.180Z,16.24
2023-03-27T12:47:38.238Z,16.42
2023-03-27T12:49:56.704Z,16.40
2023-03-27T12:52:02.858Z,15.99
2023-03-27T12:54:32.420Z,15.94
2023-03-27T12:56:37.424Z,15.63
2023-03-27T12:58:41.212Z,15.65
2023-03-27T13:00:53.946Z,15.79
2023-03-27T13:03:19.645Z,15.46
2023-03-27T13:05:33.598Z,15.17
2023-03-27T13:08:07.311Z,15.22
2023-03-27T13:10:21.071Z,15.10
2023-03-27T13:12:43.470Z,15.22
2023-03-27T13:15:01.123Z,15.28
2023-03-27T13:17:32.946Z,15.36
2023-03-27T13:19:46.069Z,15.43
2023-03-27T13:22:13.861Z,15.40
2023-03-27T13:24:43.886Z,15.27
2023-03-27T13:27:21.767Z,15.30
2023-03-27T13:29:54.150Z,14.83
2023-03-27T13:32:09.421Z,15.20
2023-03-27T13:34:37.438Z,15.22
2023-03-27T13:36:48.105Z,15.18
2023-03-27T13:38:52.903Z,15.20
2023-03-27T13:40:54.735Z,15.21
2023-03-27T13:43:07.160Z,15.01
2023-03-27T13:45:20.852Z,14.96
2023-03-27T13:47:25.679Z,14.91
2023-03-27T13:49:34.287Z,14.83
2023-03-27T13:51:38.918Z,14.79
2023-03-27T13:53:51.167Z,14.63
2023-03-27T13:56:24.568Z,14.53
2023-03-27T13:58:49.363Z,14.71
2023-03-27T14:01:22.799Z,14.93
2023-03-27T14:03:46.295Z,14.71
2023-03-27T14:06:13.240Z,14.58
2023-03-27T14:08:36.772Z,14.62
2023-03-27T14:10:47.098Z,14.76
2023-03-27T14:13:18.250Z,14.86
2023-03-27T14:15:45.082Z,15.24
2023-03-27T14:18:25.848Z,15.46
2023-03-27T14:20:40.209Z,15.71
2023-03-27T14:23:17.610Z,15.83
2023-03-27T14:25:23.790Z,16.20
2023-03-27T14:27:26.596Z,16.47
2023-03-27T14:29:29.144Z,16.46
2023-03-27T14:31:35.900Z,16.27
2023-03-27T14:33:39.283Z,16.29
2023-03-27T14:35:46.670Z,15.88
2023-03-27T14:37:55.935Z,15.79
2023-03-27T14:40:00.960Z,15.62
2023-03-27T14:42:03.595Z,15.84
2023-03-27T14:44:05.292Z,15.86
2023-03-27T14:46:08.100Z,15.64
2023-03-27T14:48:19.695Z,15.94
2023-03-27T14:50:23.315Z,15.80
2023-03-27T14:52:32.293Z,15.75
2023-03-27T14:54:44.648Z,15.82
2023-03-27T14:56:57.496Z,15.82
2023-03-27T14:59:02.177Z,16.03
2023-03-27T15:01:05.366Z,15.99
2023-03-27T15:03:16.636Z,15.67
2023-03-27T15:05:22.137Z,15.77
2023-03-27T15:07:30.666Z,15.91
2023-03-27T15:09:33.110Z,15.92
2023-03-27T15:11:39.078Z,15.99
2023-03-27T15:13:41.117Z,16.18
2023-03-27T15:15:50.699Z,16.44
2023-03-27T15:18:02.956Z,16.65
2023-03-27T15:20:14.525Z,16.81
2023-03-27T15:22:30.165Z,17.11
2023-03-27T15:24:43.245Z,17.33
2023-03-27T15:26:48.242Z,16.92
2023-03-27T15:29:04.217Z,16.48
2023-03-27T15:31:07.559Z,16.05
2023-03-27T15:33:22.072Z,16.02
2023-03-27T15:35:27.153Z,15.93
2023-03-27T15:37:40.664Z,15.95
2023-03-27T15:40:09.484Z,15.64
2023-03-27T15:42:14.219Z,15.10
2023-03-27T15:44:18.608Z,15.13
2023-03-27T15:46:26.732Z,15.07
2023-03-27T15:48:38.106Z,15.10
2023-03-27T15:50:39.962Z,15.35
2023-03-27T15:52:52.945Z,15.47
2023-03-27T15:54:56.171Z,15.54
2023-03-27T15:57:09.259Z,15.38
2023-03-27T15:59:15.401Z,15.12
2023-03-27T16:01:23.400Z,14.84
2023-03-27T16:03:27.629Z,14.78
2023-03-27T16:05:29.661Z,14.71
2023-03-27T16:07:42.541Z,14.65
2023-03-27T16:09:49.544Z,14.68
2023-03-27T16:11:54.312Z,14.63
2023-03-27T16:13:56.219Z,14.61
2023-03-27T16:16:01.547Z,14.66
2023-03-27T16:18:19.605Z,14.69
2023-03-27T16:20:24.465Z,14.87
2023-03-27T16:22:32.323Z,15.01
2023-03-27T16:24:34.089Z,14.81
2023-03-27T16:26:36.207Z,14.91
2023-03-27T16:28:37.963Z,14.85
2023-03-27T16:30:41.474Z,14.99
2023-03-27T16:32:43.271Z,15.04
2023-03-27T16:34:47.789Z,14.96
2023-03-27T16:36:49.823Z,14.94
2023-03-27T16:38:51.641Z,14.56
2023-03-27T16:40:53.348Z,14.43
2023-03-27T16:42:55.341Z,14.55
2023-03-27T16:44:57.327Z,14.59
2023-03-27T16:46:59.045Z,14.53
2023-03-27T16:49:00.933Z,14.54
2023-03-27T16:51:02.608Z,14.67
2023-03-27T16:53:04.321Z,14.66
2023-03-27T16:55:07.718Z,14.68
2023-03-27T16:57:10.537Z,14.61
2023-03-27T16:59:12.225Z,14.59
2023-03-27T17:01:14.005Z,14.59
2023-03-27T17:03:16.462Z,14.66
2023-03-27T17:05:18.383Z,14.28
2023-03-27T17:07:20.308Z,14.25
2023-03-27T17:09:22.784Z,14.31
2023-03-27T17:11:24.794Z,14.18
2023-03-27T17:13:26.867Z,14.26
2023-03-27T17:15:28.564Z,14.25
2023-03-27T17:17:30.650Z,14.34
2023-03-27T17:19:32.502Z,14.32
2023-03-27T17:21:34.228Z,14.37
2023-03-27T17:23:36.430Z,14.37
2023-03-27T17:25:38.139Z,14.32
2023-03-27T17:27:40.135Z,14.20
2023-03-27T17:29:42.215Z,14.14
2023-03-27T17:31:43.965Z,14.07
2023-03-27T17:33:45.864Z,14.11
2023-03-27T17:35:47.534Z,14.18
2023-03-27T17:37:49.906Z,14.09
2023-03-27T17:39:51.791Z,14.04
2023-03-27T17:41:53.627Z,14.00
2023-03-27T17:43:55.362Z,13.96
2023-03-27T17:45:57.342Z,14.03
2023-03-27T17:47:59.331Z,14.01
2023-03-27T17:50:01.140Z,14.04
2023-03-27T17:52:11.185Z,13.90
2023-03-27T17:54:13.188Z,13.78
2023-03-27T17:56:15.438Z,13.81
2023-03-27T17:58:21.367Z,13.67
2023-03-27T18:00:25.559Z,13.72
2023-03-27T18:02:27.331Z,13.68
2023-03-27T18:04:29.379Z,13.70
2023-03-27T18:06:31.154Z,13.64
2023-03-27T18:08:34.266Z,13.53
2023-03-27T18:10:36.409Z,13.44
2023-03-27T18:12:38.681Z,13.44
2023-03-27T18:14:43.224Z,13.34
2023-03-27T18:16:45.383Z,13.36
2023-03-27T18:18:48.412Z,13.27
2023-03-27T18:20:56.996Z,13.12
2023-03-27T18:22:59.329Z,13.17
2023-03-27T18:25:01.469Z,13.20
2023-03-27T18:27:04.101Z,13.00
2023-03-27T18:29:07.020Z,12.97
2023-03-27T18:31:12.036Z,12.77
2023-03-27T18:33:14.195Z,12.80
2023-03-27T18:35:18.746Z,12.77
2023-03-27T18:37:20.982Z,12.77
2023-03-27T18:39:23.042Z,12.78
2023-03-27T18:41:25.138Z,12.74
2023-03-27T18:43:27.416Z,12.72
2023-03-27T18:45:29.444Z,12.51
2023-03-27T18:47:31.651Z,12.43
2023-03-27T18:49:33.739Z,12.33
2023-03-27T18:51:35.799Z,12.20
2023-03-27T18:53:37.756Z,12.20
2023-03-27T18:55:39.717Z,12.04
2023-03-27T18:57:45.375Z,12.11
2023-03-27T18:59:49.354Z,11.87
2023-03-27T19:01:51.289Z,11.97
2023-03-27T19:03:53.196Z,11.92
2023-03-27T19:05:59.851Z,11.99
2023-03-27T19:08:04.042Z,12.02
2023-03-27T19:10:07.313Z,11.90
2023-03-27T19:12:10.494Z,11.87
2023-03-27T19:14:12.729Z,12.00
2023-03-27T19:16:23.330Z,11.87
2023-03-27T19:18:28.591Z,11.71
2023-03-27T19:20:30.851Z,11.59
2023-03-27T19:22:32.834Z,11.53
2023-03-27T19:24:35.429Z,11.49
2023-03-27T19:26:37.577Z,11.40
2023-03-27T19:28:40.527Z,11.50
2023-03-27T19:30:43.038Z,11.57
2023-03-27T19:32:45.367Z,11.63
2023-03-27T19:34:47.451Z,11.67
2023-03-27T19:36:51.078Z,11.64
2023-03-27T19:38:54.466Z,11.59
2023-03-27T19:40:56.905Z,11.54
2023-03-27T19:42:59.308Z,11.42
2023-03-27T19:45:01.359Z,11.37
2023-03-27T19:47:03.888Z,11.31
2023-03-27T19:49:06.014Z,11.23
2023-03-27T19:51:08.009Z,11.16
2023-03-27T19:53:10.184Z,11.19
2023-03-27T19:55:12.093Z,11.20
2023-03-27T19:57:14.063Z,11.09
2023-03-27T19:59:28.211Z,11.12
2023-03-27T20:01:32.838Z,11.12
2023-03-27T20:03:38.779Z,10.99
2023-03-27T20:05:41.405Z,10.96
2023-03-27T20:07:43.484Z,10.97
2023-03-27T20:09:45.768Z,10.99
2023-03-27T20:11:48.019Z,10.93
2023-03-27T20:13:56.533Z,10.84
2023-03-27T20:15:59.347Z,10.96
2023-03-27T20:18:02.729Z,11.09
2023-03-27T20:20:06.266Z,10.74
2023-03-27T20:22:10.279Z,10.70
2023-03-27T20:24:17.471Z,10.61
2023-03-27T20:26:22.551Z,10.67
2023-03-27T20:28:24.502Z,10.53
2023-03-27T20:30:27.424Z,10.68
2023-03-27T20:32:30.900Z,10.78
2023-03-27T20:34:33.169Z,10.73
2023-03-27T20:36:35.828Z,10.68
2023-03-27T20:38:37.853Z,10.61
2023-03-27T20:40:52.997Z,10.70
2023-03-27T20:43:03.628Z,10.72
2023-03-27T20:45:06.980Z,10.58
2023-03-27T20:47:12.112Z,10.53
2023-03-27T20:49:37.448Z,10.51
2023-03-27T20:51:42.790Z,10.47
2023-03-27T20:53:54.449Z,10.49
2023-03-27T20:56:00.540Z,10.56
2023-03-27T20:58:03.259Z,10.54
2023-03-27T21:00:07.927Z,10.59
2023-03-27T21:02:17.349Z,10.41
2023-03-27T21:04:19.395Z,10.54
2023-03-27T21:06:22.772Z,10.40
2023-03-27T21:08:25.773Z,10.44
2023-03-27T21:10:27.856Z,10.41
2023-03-27T21:12:29.834Z,10.55
2023-03-27T21:14:31.713Z,10.32
2023-03-27T21:16:33.817Z,10.34
2023-03-27T21:18:36.495Z,10.32
2023-03-27T21:20:38.521Z,10.43
2023-03-27T21:22:40.491Z,10.33
2023-03-27T21:24:42.407Z,10.18
2023-03-27T21:26:46.664Z,9.97
2023-03-27T21:28:52.904Z,10.05
2023-03-27T21:30:54.666Z,9.91
2023-03-27T21:32:56.859Z,10.05
2023-03-27T21:34:58.963Z,9.90
2023-03-27T21:37:02.671Z,9.94
2023-03-27T21:39:05.018Z,10.05
2023-03-27T21:41:07.531Z,10.15
2023-03-27T21:43:09.476Z,10.02
2023-03-27T21:45:11.425Z,9.94
2023-03-27T21:47:13.267Z,9.86
2023-03-27T21:49:15.408Z,9.96
2023-03-27T21:51:17.663Z,9.97
2023-03-27T21:53:19.524Z,9.86
2023-03-27T21:55:21.552Z,9.92
2023-03-27T21:57:25.080Z,9.99
2023-03-27T21:59:31.082Z,9.96
2023-03-27T22:01:33.136Z,9.98
2023-03-27T22:03:39.787Z,9.93
2023-03-27T22:05:42.245Z,9.69
2023-03-27T22:07:45.677Z,9.74
2023-03-27T22:09:47.658Z,9.77
2023-03-27T22:11:49.606Z,9.55
2023-03-27T22:13:57.378Z,9.68
2023-03-27T22:16:03.174Z,9.77
2023-03-27T22:18:08.979Z,9.64
2023-03-27T22:20:11.632Z,9.46
2023-03-27T22:22:13.484Z,9.56
2023-03-27T22:24:15.479Z,9.43
2023-03-27T22:26:19.177Z,9.61
2023-03-27T22:28:24.690Z,9.33
2023-03-27T22:30:27.812Z,9.50
2023-03-27T22:32:30.137Z,9.35
2023-03-27T22:34:32.085Z,9.29
2023-03-27T22:36:38.427Z,9.29
2023-03-27T22:38:41.679Z,9.39
2023-03-27T22:40:44.388Z,9.32
2023-03-27T22:42:46.172Z,9.40
2023-03-27T22:44:47.958Z,9.49
2023-03-27T22:46:49.906Z,9.46
2023-03-27T22:48:58.721Z,9.37
2023-03-27T22:51:01.264Z,9.33
2023-03-27T22:53:03.233Z,9.25
2023-03-27T22:55:05.441Z,9.37
2023-03-27T22:57:07.505Z,9.41
2023-03-27T22:59:09.340Z,9.42
2023-03-27T23:01:11.349Z,9.39
2023-03-27T23:03:13.544Z,9.42
2023-03-27T23:05:15.660Z,9.30
2023-03-27T23:07:17.350Z,9.46
2023-03-27T23:09:19.245Z,9.29
2023-03-27T23:11:21.223Z,9.32
2023-03-27T23:13:23.871Z,9.22
2023-03-27T23:15:30.160Z,9.12
2023-03-27T23:17:32.272Z,9.12
2023-03-27T23:19:34.104Z,9.32
2023-03-27T23:21:36.079Z,9.24
2023-03-27T23:23:39.376Z,9.20
2023-03-27T23:25:42.490Z,9.11
2023-03-27T23:27:44.367Z,9.17
2023-03-27T23:29:48.076Z,9.04
2023-03-27T23:31:49.912Z,9.02
2023-03-27T23:33:51.789Z,9.03
2023-03-27T23:35:59.972Z,8.92
2023-03-27T23:38:02.104Z,8.95
2023-03-27T23:40:04.897Z,8.93
2023-03-27T23:42:06.679Z,9.02
2023-03-27T23:44:08.441Z,8.92
2023-03-27T23:46:15.973Z,9.03
2023-03-27T23:48:18.032Z,9.08
2023-03-27T23:50:19.737Z,8.84
2023-03-27T23:52:21.424Z,8.85
2023-03-27T23:54:23.276Z,8.93
2023-03-27T23:56:24.928Z,8.88
2023-03-27T23:58:28.857Z,8.78
